Time;durP1;ratioP1;P1;durP2;ratioP2;P2;SDS_P1;SDS_P2;PMS_P1;PMS_P2;Temp;Humidity;BMP_temperature;BMP_pressure;BME280_temperature;BME280_humidity;BME280_pressure;Samples;Min_cycle;Max_cycle;Signal;HPM_P1;HPM_P2
2022/05/07 00:02:11;;;;;;;0.10;0.10;;;13.50;99.90;;;;;;5009736;28;20620;-82
2022/05/07 00:04:38;;;;;;;0.10;0.10;;;13.60;99.90;;;;;;5017616;28;20218;-82
2022/05/07 00:07:07;;;;;;;0.20;0.20;;;13.70;99.90;;;;;;5018865;28;20195;-82
2022/05/07 00:09:33;;;;;;;0.17;0.17;;;13.70;99.90;;;;;;5019110;28;21229;-82
2022/05/07 00:11:59;;;;;;;0.50;0.50;;;13.60;99.90;;;;;;5003916;28;20182;-82
2022/05/07 00:14:25;;;;;;;0.20;0.20;;;13.80;99.90;;;;;;5003421;28;20556;-82
2022/05/07 00:19:35;;;;;;;0.23;0.23;;;13.60;99.90;;;;;;5002646;28;20201;-82
2022/05/07 00:22:01;;;;;;;0.13;0.13;;;13.50;99.90;;;;;;5019649;28;20191;-82
2022/05/07 00:24:27;;;;;;;0.20;0.20;;;13.50;99.90;;;;;;5018737;28;20542;-82
2022/05/07 00:26:52;;;;;;;0.40;0.40;;;13.50;99.90;;;;;;5002533;28;20186;-82
2022/05/07 00:29:18;;;;;;;0.30;0.30;;;13.50;99.90;;;;;;5008623;28;20209;-82
2022/05/07 00:31:44;;;;;;;0.17;0.17;;;13.50;99.90;;;;;;5002681;28;20236;-82
2022/05/07 00:34:10;;;;;;;0.20;0.20;;;13.50;99.90;;;;;;5008484;28;20241;-82
2022/05/07 00:36:36;;;;;;;0.13;0.13;;;13.60;99.90;;;;;;5006770;28;20218;-82
2022/05/07 00:39:02;;;;;;;0.60;0.30;;;13.50;99.90;;;;;;5000902;28;20608;-82
2022/05/07 00:41:28;;;;;;;0.33;0.23;;;13.50;99.90;;;;;;5006239;28;20249;-82
2022/05/07 00:43:53;;;;;;;0.20;0.20;;;13.50;99.90;;;;;;5004981;28;20207;-82
2022/05/07 00:46:23;;;;;;;0.30;0.30;;;13.50;99.90;;;;;;5005977;28;20658;-82
2022/05/07 00:48:49;;;;;;;0.27;0.27;;;13.50;99.90;;;;;;5005828;28;20216;-82
2022/05/07 00:53:59;;;;;;;0.20;0.20;;;13.40;99.90;;;;;;4999030;28;20217;-82
2022/05/07 00:56:24;;;;;;;0.17;0.17;;;13.40;99.90;;;;;;5005663;28;20180;-82
2022/05/07 00:58:51;;;;;;;0.70;0.27;;;13.40;99.90;;;;;;5013319;28;20686;-82
2022/05/07 01:01:17;;;;;;;0.53;0.37;;;13.20;99.90;;;;;;4998250;28;20214;-82
2022/05/07 01:03:45;;;;;;;0.20;0.20;;;13.20;99.90;;;;;;4998217;28;20689;-82
2022/05/07 01:06:11;;;;;;;0.20;0.20;;;13.00;99.90;;;;;;5005060;28;20189;-82
2022/05/07 01:08:37;;;;;;;0.30;0.30;;;13.00;99.90;;;;;;5005803;28;20290;-82
2022/05/07 01:11:03;;;;;;;0.53;0.30;;;13.10;99.90;;;;;;5005745;28;20559;-82
2022/05/07 01:13:30;;;;;;;0.10;0.10;;;13.10;99.90;;;;;;5004849;28;20227;-82
2022/05/07 01:15:57;;;;;;;0.20;0.20;;;13.10;99.90;;;;;;4999141;28;20268;-81
2022/05/07 01:18:23;;;;;;;0.10;0.10;;;13.10;99.90;;;;;;4998716;28;20185;-82
2022/05/07 01:20:49;;;;;;;0.20;0.13;;;13.00;99.90;;;;;;4998016;28;20190;-82
2022/05/07 01:23:15;;;;;;;0.30;0.30;;;12.80;99.90;;;;;;5000214;28;20658;-82
2022/05/07 01:25:41;;;;;;;0.30;0.30;;;12.80;99.90;;;;;;5005090;28;20182;-82
2022/05/07 01:28:07;;;;;;;0.10;0.10;;;12.80;99.90;;;;;;5012527;28;20249;-82
2022/05/07 01:30:34;;;;;;;0.17;0.17;;;12.80;99.90;;;;;;5007222;28;20205;-82
2022/05/07 01:32:59;;;;;;;0.23;0.20;;;12.70;99.90;;;;;;5003387;28;20585;-82
2022/05/07 01:35:25;;;;;;;0.23;0.23;;;12.80;99.90;;;;;;5002271;28;20183;-82
2022/05/07 01:37:51;;;;;;;0.20;0.20;;;12.80;99.90;;;;;;5008508;28;20259;-82
2022/05/07 01:40:17;;;;;;;0.37;0.37;;;12.80;99.90;;;;;;5008891;28;21109;-83
2022/05/07 01:42:42;;;;;;;0.20;0.20;;;12.80;99.90;;;;;;5008404;28;20210;-82
2022/05/07 01:45:08;;;;;;;0.27;0.27;;;12.80;99.90;;;;;;5009294;28;20718;-82
2022/05/07 01:50:26;;;;;;;0.10;0.10;;;12.90;99.90;;;;;;5002632;28;20276;-82
2022/05/07 01:52:51;;;;;;;0.10;0.10;;;12.80;99.90;;;;;;5000578;28;20215;-82
2022/05/07 01:55:17;;;;;;;0.10;0.10;;;12.70;99.90;;;;;;5014609;28;20181;-83
2022/05/07 01:57:42;;;;;;;0.57;0.57;;;12.60;99.90;;;;;;5009092;28;20998;-82
2022/05/07 02:00:08;;;;;;;0.53;0.50;;;12.60;99.90;;;;;;5003748;28;20244;-83
2022/05/07 02:02:34;;;;;;;0.47;0.40;;;12.50;99.90;;;;;;5001925;28;20270;-83
2022/05/07 02:05:00;;;;;;;0.27;0.27;;;12.50;99.90;;;;;;5017825;28;20215;-82
2022/05/07 02:07:25;;;;;;;0.73;0.23;;;12.60;99.90;;;;;;5007645;28;20202;-83
2022/05/07 02:09:51;;;;;;;0.20;0.20;;;12.60;99.90;;;;;;5003216;28;20232;-82
2022/05/07 02:12:17;;;;;;;0.50;0.50;;;12.50;99.90;;;;;;5004273;28;20214;-82
2022/05/07 02:14:42;;;;;;;0.20;0.20;;;12.50;99.90;;;;;;5008891;28;20277;-82
2022/05/07 02:17:09;;;;;;;0.20;0.20;;;12.50;99.90;;;;;;5002159;28;20602;-83
2022/05/07 02:19:34;;;;;;;0.30;0.20;;;12.40;99.90;;;;;;5002204;28;20191;-83
2022/05/07 02:22:00;;;;;;;0.20;0.20;;;12.40;99.90;;;;;;5004885;28;20630;-83
2022/05/07 02:24:25;;;;;;;0.20;0.20;;;12.40;99.90;;;;;;5021066;28;20225;-82
2022/05/07 02:26:51;;;;;;;0.47;0.20;;;12.40;99.90;;;;;;5008812;28;20185;-82
2022/05/07 02:29:16;;;;;;;0.30;0.30;;;12.40;99.90;;;;;;5010343;28;20226;-82
2022/05/07 02:32:03;;;;;;;0.43;0.43;;;12.30;99.90;;;;;;5018617;28;20213;-82
2022/05/07 02:34:30;;;;;;;0.20;0.20;;;12.30;99.90;;;;;;5005454;28;20180;-83
2022/05/07 02:36:56;;;;;;;0.23;0.23;;;12.20;99.90;;;;;;5010566;28;20189;-82
2022/05/07 02:39:21;;;;;;;0.20;0.20;;;12.20;99.90;;;;;;5011288;28;20189;-83
2022/05/07 02:44:31;;;;;;;0.30;0.30;;;11.90;99.90;;;;;;5003671;28;20198;-83
2022/05/07 02:46:56;;;;;;;0.90;0.60;;;12.00;99.90;;;;;;5007619;28;20188;-82
2022/05/07 02:49:22;;;;;;;0.30;0.30;;;12.00;99.90;;;;;;5007261;28;20223;-82
2022/05/07 02:51:47;;;;;;;0.50;0.30;;;12.00;99.90;;;;;;5016604;28;21099;-82
2022/05/07 02:54:13;;;;;;;0.30;0.30;;;12.00;99.90;;;;;;5001786;28;20275;-82
2022/05/07 02:56:38;;;;;;;0.10;0.10;;;12.00;99.90;;;;;;5007047;28;20669;-83
2022/05/07 02:59:04;;;;;;;0.30;0.30;;;12.00;99.90;;;;;;5007293;28;20667;-83
2022/05/07 03:01:29;;;;;;;0.20;0.20;;;12.00;99.90;;;;;;5001739;28;20278;-82
2022/05/07 03:03:55;;;;;;;0.20;0.20;;;12.00;99.90;;;;;;5003307;28;20221;-83
2022/05/07 03:06:20;;;;;;;0.20;0.20;;;12.00;99.90;;;;;;5002215;28;20699;-82
2022/05/07 03:08:46;;;;;;;0.13;0.13;;;12.00;99.90;;;;;;5007469;28;20200;-83
2022/05/07 03:11:11;;;;;;;0.13;0.10;;;12.10;99.90;;;;;;5016128;28;20203;-82
2022/05/07 03:13:37;;;;;;;0.20;0.20;;;12.10;99.90;;;;;;5017188;28;20324;-83
2022/05/07 03:16:03;;;;;;;0.17;0.17;;;12.00;99.90;;;;;;5008163;28;20206;-83
2022/05/07 03:18:29;;;;;;;0.17;0.13;;;12.00;99.90;;;;;;5002089;28;20176;-83
2022/05/07 03:20:54;;;;;;;0.30;0.30;;;12.00;99.90;;;;;;5007053;28;20615;-83
2022/05/07 03:23:20;;;;;;;0.23;0.23;;;11.80;99.90;;;;;;5001575;28;20210;-83
2022/05/07 03:25:45;;;;;;;0.20;0.20;;;11.60;99.90;;;;;;5008398;28;20192;-83
2022/05/07 03:28:11;;;;;;;0.20;0.20;;;11.60;99.90;;;;;;5006836;28;20226;-83
2022/05/07 03:30:36;;;;;;;0.23;0.23;;;11.70;99.90;;;;;;5007420;28;20268;-82
2022/05/07 03:33:02;;;;;;;0.27;0.27;;;11.70;99.90;;;;;;5001035;28;20197;-83
2022/05/07 03:35:29;;;;;;;1.20;0.40;;;11.70;99.90;;;;;;5007036;28;20246;-83
2022/05/07 03:37:55;;;;;;;0.20;0.20;;;11.70;99.90;;;;;;5006543;28;20217;-83
2022/05/07 03:40:21;;;;;;;0.30;0.30;;;11.80;99.90;;;;;;5007865;28;20296;-83
2022/05/07 03:42:47;;;;;;;0.30;0.30;;;11.80;99.90;;;;;;5014888;28;20202;-83
2022/05/07 03:45:12;;;;;;;0.53;0.53;;;11.80;99.90;;;;;;5000929;28;20177;-83
2022/05/07 03:47:39;;;;;;;0.20;0.20;;;11.80;99.90;;;;;;5007024;28;20271;-82
2022/05/07 03:50:05;;;;;;;0.30;0.30;;;11.80;99.90;;;;;;5016540;28;20342;-82
2022/05/07 03:55:16;;;;;;;0.50;0.20;;;11.70;99.90;;;;;;5000777;28;20185;-83
2022/05/07 03:57:41;;;;;;;0.23;0.23;;;11.70;99.90;;;;;;5007593;28;20264;-83
2022/05/07 04:00:08;;;;;;;0.30;0.30;;;11.80;99.90;;;;;;4996360;28;20434;-83
2022/05/07 04:02:35;;;;;;;0.10;0.10;;;11.90;99.90;;;;;;5001614;28;20211;-83
2022/05/07 04:05:03;;;;;;;0.53;0.20;;;11.90;99.90;;;;;;5007569;28;20188;-82
2022/05/07 04:07:28;;;;;;;2.70;0.27;;;12.00;99.90;;;;;;5000475;28;20628;-82
2022/05/07 04:09:55;;;;;;;0.13;0.13;;;12.10;99.90;;;;;;5001852;28;20250;-83
2022/05/07 04:12:21;;;;;;;0.23;0.23;;;12.20;99.90;;;;;;4998465;28;20195;-83
2022/05/07 04:14:47;;;;;;;0.30;0.30;;;12.20;99.90;;;;;;5006873;28;20254;-83
2022/05/07 04:17:13;;;;;;;0.20;0.20;;;12.30;99.90;;;;;;5000595;28;20211;-83
2022/05/07 04:19:39;;;;;;;0.30;0.30;;;12.40;99.90;;;;;;5005676;28;20988;-83
2022/05/07 04:22:05;;;;;;;0.40;0.40;;;12.50;99.90;;;;;;5001273;28;20196;-83
2022/05/07 04:24:33;;;;;;;0.40;0.40;;;12.50;99.90;;;;;;5000249;28;20193;-83
2022/05/07 04:26:58;;;;;;;0.40;0.40;;;12.60;99.90;;;;;;5006967;28;20184;-83
2022/05/07 04:29:24;;;;;;;0.40;0.40;;;12.60;99.90;;;;;;5013248;28;20209;-82
2022/05/07 04:31:49;;;;;;;0.10;0.10;;;12.70;99.90;;;;;;5004179;28;20281;-82
2022/05/07 04:34:15;;;;;;;0.27;0.27;;;12.70;99.90;;;;;;5005746;28;20627;-83
2022/05/07 04:36:40;;;;;;;0.20;0.20;;;12.70;99.90;;;;;;5001000;28;20859;-83
2022/05/07 04:39:06;;;;;;;0.40;0.40;;;12.70;99.90;;;;;;5015967;28;20194;-82
2022/05/07 04:41:32;;;;;;;0.30;0.30;;;12.70;99.90;;;;;;5005026;28;20350;-82
2022/05/07 04:43:58;;;;;;;0.27;0.27;;;12.70;99.90;;;;;;4997516;28;20211;-83
2022/05/07 04:46:24;;;;;;;0.33;0.33;;;12.70;99.90;;;;;;5000457;28;20265;-83
2022/05/07 04:48:49;;;;;;;0.20;0.20;;;12.70;99.90;;;;;;5004496;28;21024;-83
2022/05/07 04:51:15;;;;;;;0.20;0.20;;;12.70;99.90;;;;;;5004982;28;20188;-83
2022/05/07 04:53:40;;;;;;;0.10;0.10;;;12.80;99.90;;;;;;5004702;28;20662;-82
2022/05/07 04:56:06;;;;;;;0.30;0.30;;;12.80;99.90;;;;;;5004566;28;20215;-83
2022/05/07 04:58:32;;;;;;;1.07;0.37;;;12.80;99.90;;;;;;4998932;28;20205;-82
2022/05/07 05:00:57;;;;;;;0.40;0.40;;;12.80;99.90;;;;;;5016491;28;20272;-83
2022/05/07 05:03:22;;;;;;;0.67;0.30;;;12.80;99.90;;;;;;5005113;28;20213;-83
2022/05/07 05:05:48;;;;;;;0.30;0.30;;;12.90;99.90;;;;;;5005026;28;20275;-83
2022/05/07 05:08:14;;;;;;;0.50;0.43;;;12.90;99.90;;;;;;5004117;28;20206;-83
2022/05/07 05:10:39;;;;;;;0.50;0.50;;;12.90;99.90;;;;;;4999783;28;21330;-83
2022/05/07 05:13:05;;;;;;;0.47;0.40;;;13.10;99.90;;;;;;4999262;28;20199;-83
2022/05/07 05:15:32;;;;;;;0.23;0.23;;;13.10;99.90;;;;;;5006583;28;20226;-83
2022/05/07 05:17:59;;;;;;;0.37;0.30;;;13.20;99.90;;;;;;5014762;28;20705;-83
2022/05/07 05:20:25;;;;;;;0.40;0.20;;;13.20;99.90;;;;;;5004691;28;20644;-81
2022/05/07 05:22:50;;;;;;;0.30;0.30;;;13.30;99.90;;;;;;5000723;28;20213;-81
2022/05/07 05:25:18;;;;;;;0.77;0.40;;;13.40;99.90;;;;;;5011836;28;20251;-81
2022/05/07 05:27:44;;;;;;;0.40;0.40;;;13.50;99.90;;;;;;5006192;28;20191;-81
2022/05/07 05:30:10;;;;;;;0.43;0.43;;;13.30;99.90;;;;;;5001424;28;20292;-81
2022/05/07 05:32:35;;;;;;;21.03;0.70;;;13.30;99.90;;;;;;5001636;28;20242;-81
2022/05/07 05:35:02;;;;;;;1.13;0.50;;;13.30;99.90;;;;;;5007227;28;20627;-81
2022/05/07 05:37:28;;;;;;;0.30;0.30;;;13.40;99.90;;;;;;5006376;28;20282;-81
2022/05/07 05:39:53;;;;;;;0.33;0.33;;;13.30;99.90;;;;;;5014201;28;20277;-80
2022/05/07 05:42:19;;;;;;;0.30;0.30;;;13.50;99.90;;;;;;5003068;28;21162;-80
2022/05/07 05:44:44;;;;;;;0.50;0.50;;;13.60;99.90;;;;;;5001792;28;20276;-80
2022/05/07 05:47:10;;;;;;;0.20;0.20;;;13.70;99.90;;;;;;4998488;28;20201;-80
2022/05/07 05:49:36;;;;;;;0.50;0.50;;;13.90;99.90;;;;;;5014358;28;20215;-80
2022/05/07 05:52:03;;;;;;;0.30;0.30;;;13.90;99.90;;;;;;5005330;28;20183;-80
2022/05/07 05:54:29;;;;;;;0.30;0.30;;;13.90;99.90;;;;;;4999557;28;20245;-80
2022/05/07 05:56:55;;;;;;;0.40;0.40;;;13.90;99.90;;;;;;4996839;28;20184;-80
2022/05/07 05:59:21;;;;;;;1.07;1.07;;;14.00;99.90;;;;;;5012936;28;20604;-80
2022/05/07 06:01:47;;;;;;;0.33;0.33;;;14.10;99.90;;;;;;5000147;28;20198;-80
2022/05/07 06:04:14;;;;;;;0.50;0.50;;;14.20;99.90;;;;;;5012505;28;20768;-80
2022/05/07 06:06:39;;;;;;;0.53;0.53;;;14.30;99.90;;;;;;4998650;28;20195;-80
2022/05/07 06:09:05;;;;;;;0.50;0.50;;;14.30;99.90;;;;;;4998643;28;20222;-80
2022/05/07 06:11:30;;;;;;;0.43;0.43;;;14.30;99.90;;;;;;4998109;28;20182;-83
2022/05/07 06:13:56;;;;;;;0.43;0.43;;;14.30;99.90;;;;;;5010409;28;20236;-85
2022/05/07 06:16:21;;;;;;;0.53;0.47;;;14.40;99.90;;;;;;5013450;28;20182;-85
2022/05/07 06:18:47;;;;;;;0.43;0.43;;;14.60;99.90;;;;;;5015465;28;20191;-85
2022/05/07 06:21:12;;;;;;;0.63;0.50;;;14.70;99.90;;;;;;5000674;28;20648;-85
2022/05/07 06:23:38;;;;;;;0.20;0.20;;;14.80;99.90;;;;;;5016606;28;20206;-86
2022/05/07 06:28:47;;;;;;;1.20;1.03;;;15.10;99.90;;;;;;5000927;28;20249;-85
2022/05/07 06:31:13;;;;;;;0.30;0.30;;;15.20;99.90;;;;;;5007075;28;20187;-85
2022/05/07 06:33:38;;;;;;;0.30;0.30;;;15.40;99.90;;;;;;4999064;28;20213;-85
2022/05/07 06:36:07;;;;;;;0.57;0.43;;;15.50;99.90;;;;;;5016546;28;20218;-85
2022/05/07 06:38:34;;;;;;;0.67;0.47;;;15.50;99.90;;;;;;5006198;28;20274;-84
2022/05/07 06:41:02;;;;;;;2.53;0.77;;;15.50;99.90;;;;;;5001031;28;20187;-84
2022/05/07 06:43:31;;;;;;;0.50;0.50;;;15.60;99.90;;;;;;5000331;28;20222;-85
2022/05/07 06:45:58;;;;;;;1.23;1.13;;;15.70;99.90;;;;;;4999386;28;20188;-85
2022/05/07 06:48:25;;;;;;;0.57;0.57;;;15.70;99.90;;;;;;4999343;28;20229;-85
2022/05/07 06:50:51;;;;;;;0.23;0.23;;;15.90;99.90;;;;;;5013842;28;20222;-85
2022/05/07 06:53:17;;;;;;;0.20;0.20;;;16.10;99.90;;;;;;4999175;28;20209;-85
2022/05/07 06:55:54;;;;;;;0.40;0.30;;;16.30;99.90;;;;;;5000567;28;20187;-85
2022/05/07 06:58:21;;;;;;;0.30;0.30;;;16.50;99.90;;;;;;5005369;28;20179;-85
2022/05/07 07:00:47;;;;;;;0.40;0.40;;;16.80;99.90;;;;;;5005965;28;20991;-80
2022/05/07 07:03:13;;;;;;;0.30;0.30;;;16.90;99.90;;;;;;5014583;28;20301;-82
2022/05/07 07:05:38;;;;;;;0.77;0.63;;;17.10;99.90;;;;;;5016222;28;20691;-81
2022/05/07 07:08:04;;;;;;;0.33;0.33;;;17.20;99.90;;;;;;5005533;28;20203;-82
2022/05/07 07:10:29;;;;;;;0.33;0.33;;;17.20;99.90;;;;;;5006248;28;20203;-82
2022/05/07 07:12:55;;;;;;;0.43;0.43;;;17.30;99.90;;;;;;5000287;28;20203;-82
2022/05/07 07:15:20;;;;;;;0.40;0.20;;;17.40;99.90;;;;;;5000603;28;20190;-81
2022/05/07 07:17:46;;;;;;;0.83;0.83;;;17.60;99.90;;;;;;5016452;28;20192;-82
2022/05/07 07:20:11;;;;;;;0.33;0.20;;;17.70;99.90;;;;;;5007507;28;20215;-82
2022/05/07 07:22:37;;;;;;;1.17;0.57;;;17.80;99.90;;;;;;5003207;28;20560;-82
2022/05/07 07:25:03;;;;;;;0.67;0.67;;;18.00;99.90;;;;;;5000326;28;20219;-80
2022/05/07 07:27:28;;;;;;;0.57;0.57;;;18.00;99.90;;;;;;5000636;28;21042;-81
2022/05/07 07:29:54;;;;;;;0.77;0.57;;;18.20;99.90;;;;;;5002701;28;20299;-81
2022/05/07 07:32:19;;;;;;;0.43;0.43;;;18.20;99.90;;;;;;4997927;28;20191;-81
2022/05/07 07:34:45;;;;;;;0.20;0.20;;;18.30;99.90;;;;;;5004486;28;20283;-81
2022/05/07 07:37:10;;;;;;;0.37;0.37;;;18.50;99.90;;;;;;5000994;28;20179;-81
2022/05/07 07:39:36;;;;;;;0.43;0.43;;;18.70;99.90;;;;;;5004831;28;20210;-81
2022/05/07 07:42:02;;;;;;;0.70;0.70;;;18.80;99.90;;;;;;5008124;28;20187;-81
2022/05/07 07:44:28;;;;;;;0.23;0.23;;;18.80;99.90;;;;;;5016471;28;20211;-81
2022/05/07 07:49:38;;;;;;;0.43;0.43;;;19.10;99.90;;;;;;4997814;28;20299;-81
2022/05/07 07:52:05;;;;;;;0.47;0.40;;;19.30;99.90;;;;;;5011932;28;20187;-80
2022/05/07 07:54:30;;;;;;;0.70;0.70;;;19.50;99.90;;;;;;4998452;28;20183;-80
2022/05/07 07:56:58;;;;;;;0.27;0.27;;;19.70;99.90;;;;;;5014868;28;20186;-80
2022/05/07 07:59:23;;;;;;;0.30;0.30;;;19.80;99.90;;;;;;4999464;28;20182;-80
2022/05/07 08:01:49;;;;;;;0.50;0.50;;;20.00;99.90;;;;;;5003930;28;20336;-80
2022/05/07 08:04:14;;;;;;;1.27;0.80;;;20.20;99.90;;;;;;4996519;28;20222;-80
2022/05/07 08:06:40;;;;;;;1.70;0.50;;;20.40;99.90;;;;;;5012719;28;20198;-80
2022/05/07 08:11:55;;;;;;;0.37;0.37;;;20.50;99.90;;;;;;5000087;28;20181;-80
2022/05/07 08:14:21;;;;;;;0.43;0.43;;;20.60;99.90;;;;;;4999072;28;20388;-80
2022/05/07 08:16:47;;;;;;;0.80;0.80;;;20.80;99.90;;;;;;5003243;28;20319;-80
2022/05/07 08:19:12;;;;;;;2.00;1.03;;;20.90;99.90;;;;;;5001402;28;20249;-80
2022/05/07 08:21:38;;;;;;;0.30;0.30;;;21.00;99.90;;;;;;4999169;28;20226;-81
2022/05/07 08:24:04;;;;;;;0.70;0.60;;;21.10;99.90;;;;;;5000669;28;20234;-80
2022/05/07 08:26:29;;;;;;;0.50;0.50;;;21.20;99.90;;;;;;5000625;28;20187;-81
2022/05/07 08:28:55;;;;;;;0.30;0.30;;;21.30;99.90;;;;;;4999624;28;20582;-80
2022/05/07 08:31:24;;;;;;;0.40;0.40;;;21.50;99.90;;;;;;5000095;28;20187;-79
2022/05/07 08:33:51;;;;;;;0.40;0.40;;;20.90;99.90;;;;;;5000610;28;20218;-80
2022/05/07 08:36:16;;;;;;;0.40;0.40;;;20.20;99.90;;;;;;5005319;28;20925;-80
2022/05/07 08:38:43;;;;;;;1.00;1.00;;;20.80;99.90;;;;;;4999928;28;20227;-80
2022/05/07 08:41:10;;;;;;;0.33;0.33;;;21.00;99.90;;;;;;5002798;28;20184;-80
2022/05/07 08:43:38;;;;;;;0.57;0.33;;;21.40;99.90;;;;;;5000867;28;20221;-80
2022/05/07 08:46:14;;;;;;;0.40;0.40;;;21.50;99.90;;;;;;5001787;28;20270;-80
2022/05/07 08:48:47;;;;;;;1.20;0.40;;;21.70;99.90;;;;;;4998766;28;20210;-80
2022/05/07 08:51:15;;;;;;;2.40;0.40;;;21.90;99.90;;;;;;5004969;28;20210;-80
2022/05/07 08:53:41;;;;;;;2.17;1.07;;;21.50;99.90;;;;;;4996401;28;20255;-80
2022/05/07 08:56:07;;;;;;;0.27;0.27;;;21.30;99.90;;;;;;5002413;28;20644;-80
2022/05/07 08:58:32;;;;;;;0.50;0.50;;;21.70;99.90;;;;;;5013798;28;20217;-80
2022/05/07 09:01:00;;;;;;;1.73;0.80;;;21.10;99.90;;;;;;5011609;28;20196;-80
2022/05/07 09:03:40;;;;;;;0.40;0.40;;;21.00;99.90;;;;;;4997457;28;20215;-80
2022/05/07 09:06:21;;;;;;;0.53;0.47;;;21.70;99.90;;;;;;4999081;28;20582;-80
2022/05/07 09:08:47;;;;;;;0.63;0.30;;;22.00;99.90;;;;;;4999007;28;20204;-82
2022/05/07 09:11:16;;;;;;;0.40;0.40;;;22.10;99.90;;;;;;5005993;28;20204;-80
2022/05/07 09:13:41;;;;;;;0.50;0.50;;;22.10;99.90;;;;;;4997606;28;20206;-80
2022/05/07 09:16:08;;;;;;;0.50;0.50;;;22.40;99.90;;;;;;5000413;28;20545;-80
2022/05/07 09:18:33;;;;;;;0.30;0.30;;;21.60;99.90;;;;;;4996303;28;20180;-80
2022/05/07 09:21:24;;;;;;;0.20;0.20;;;21.70;99.90;;;;;;5000104;28;20194;-79
2022/05/07 09:23:56;;;;;;;0.20;0.20;;;22.20;99.90;;;;;;4998696;28;20214;-80
2022/05/07 09:26:39;;;;;;;0.57;0.57;;;21.40;99.90;;;;;;5015890;28;20184;-79
2022/05/07 09:29:14;;;;;;;0.37;0.37;;;21.50;99.90;;;;;;5000535;28;20202;-80
2022/05/07 09:31:42;;;;;;;0.30;0.30;;;22.10;99.90;;;;;;5001809;28;20184;-81
2022/05/07 09:37:01;;;;;;;0.60;0.57;;;22.70;99.90;;;;;;5001041;28;20238;-81
2022/05/07 09:39:34;;;;;;;0.63;0.63;;;23.30;99.90;;;;;;5015898;28;20274;-81
2022/05/07 09:42:01;;;;;;;0.20;0.20;;;23.60;99.90;;;;;;5015091;28;20180;-82
2022/05/07 09:44:28;;;;;;;0.40;0.40;;;23.90;99.90;;;;;;5001122;28;20207;-81
2022/05/07 09:46:55;;;;;;;0.47;0.47;;;23.70;99.90;;;;;;5006443;28;20191;-81
2022/05/07 09:49:27;;;;;;;0.40;0.40;;;24.00;99.90;;;;;;4997976;28;20707;-81
2022/05/07 09:51:54;;;;;;;0.40;0.40;;;23.00;99.90;;;;;;5001835;28;20199;-82
2022/05/07 09:59:51;;;;;;;3.20;0.57;;;23.60;99.90;;;;;;5006453;28;20202;-82
2022/05/07 10:02:40;;;;;;;0.30;0.30;;;24.10;99.90;;;;;;5001096;28;20184;-81
2022/05/07 10:05:36;;;;;;;0.30;0.30;;;24.30;99.90;;;;;;5018994;28;20178;-82
2022/05/07 10:08:36;;;;;;;0.30;0.30;;;24.50;99.90;;;;;;5018469;28;20254;-82
2022/05/07 10:11:04;;;;;;;0.40;0.40;;;24.30;99.90;;;;;;5017779;28;20215;-81
2022/05/07 10:13:29;;;;;;;0.30;0.30;;;23.90;99.90;;;;;;5002152;28;20214;-82
2022/05/07 10:16:02;;;;;;;0.50;0.50;;;24.50;99.90;;;;;;5007985;28;20187;-81
2022/05/07 10:18:41;;;;;;;0.30;0.30;;;23.70;99.90;;;;;;5002855;28;20218;-82
2022/05/07 10:21:12;;;;;;;0.40;0.40;;;22.70;99.90;;;;;;5007435;28;20237;-82
2022/05/07 10:23:56;;;;;;;0.30;0.30;;;23.20;99.90;;;;;;5008083;28;20285;-82
2022/05/07 10:26:36;;;;;;;0.30;0.30;;;23.90;99.90;;;;;;5003465;28;20186;-81
2022/05/07 10:29:01;;;;;;;0.37;0.37;;;23.30;99.90;;;;;;5002062;28;20676;-81
2022/05/07 10:31:27;;;;;;;0.63;0.63;;;23.60;99.90;;;;;;5018541;28;20179;-81
2022/05/07 10:33:53;;;;;;;0.30;0.30;;;23.00;99.90;;;;;;5001385;28;20210;-82
2022/05/07 10:36:19;;;;;;;0.30;0.30;;;23.50;99.90;;;;;;5001961;28;20194;-81
2022/05/07 10:38:50;;;;;;;0.30;0.30;;;24.30;99.90;;;;;;5008461;28;20191;-82
2022/05/07 10:41:15;;;;;;;0.30;0.30;;;24.80;99.90;;;;;;5009872;28;20187;-81
2022/05/07 10:43:48;;;;;;;0.63;0.60;;;24.90;99.90;;;;;;5004585;28;20211;-81
2022/05/07 10:46:22;;;;;;;1.03;0.33;;;24.60;99.90;;;;;;5002775;28;20262;-81
2022/05/07 10:48:53;;;;;;;0.30;0.30;;;25.00;99.90;;;;;;5000261;28;20188;-82
2022/05/07 10:51:51;;;;;;;0.63;0.50;;;25.10;99.90;;;;;;4998966;28;20207;-81
2022/05/07 10:54:23;;;;;;;1.03;0.37;;;25.50;99.90;;;;;;5001306;28;20770;-82
2022/05/07 10:56:57;;;;;;;0.50;0.50;;;26.00;99.90;;;;;;5003526;28;20221;-81
2022/05/07 10:59:25;;;;;;;0.20;0.20;;;26.10;99.90;;;;;;5000608;28;20195;-81
2022/05/07 11:01:51;;;;;;;0.30;0.30;;;26.00;99.90;;;;;;5008637;28;20326;-81
2022/05/07 11:04:22;;;;;;;0.87;0.87;;;26.10;99.90;;;;;;5001927;28;20285;-81
2022/05/07 11:06:52;;;;;;;0.23;0.23;;;26.40;99.90;;;;;;5017640;28;20290;-81
2022/05/07 11:09:25;;;;;;;0.13;0.13;;;26.60;99.90;;;;;;5016535;28;20298;-83
2022/05/07 11:11:56;;;;;;;0.27;0.27;;;26.20;99.90;;;;;;5001513;28;20180;-81
2022/05/07 11:14:23;;;;;;;2.73;0.30;;;25.10;99.90;;;;;;5006847;28;20209;-82
2022/05/07 11:16:49;;;;;;;1.03;0.80;;;24.90;99.90;;;;;;5016133;28;20285;-82
2022/05/07 11:19:29;;;;;;;0.37;0.37;;;23.70;99.90;;;;;;5008567;28;20179;-81
2022/05/07 11:21:57;;;;;;;0.50;0.20;;;23.30;99.90;;;;;;5003101;28;20482;-81
2022/05/07 11:24:25;;;;;;;0.50;0.50;;;23.30;99.90;;;;;;5010406;28;20203;-81
2022/05/07 11:26:56;;;;;;;3.83;0.80;;;23.50;99.90;;;;;;5001937;28;20203;-81
2022/05/07 11:29:23;;;;;;;0.37;0.37;;;23.80;99.90;;;;;;5004438;28;20210;-81
2022/05/07 11:31:56;;;;;;;0.50;0.50;;;24.40;99.90;;;;;;5021125;28;20606;-82
2022/05/07 11:34:33;;;;;;;0.23;0.23;;;24.20;99.90;;;;;;5021101;28;20195;-82
2022/05/07 11:37:15;;;;;;;0.30;0.30;;;24.60;99.90;;;;;;5014287;28;20212;-81
2022/05/07 11:39:53;;;;;;;0.53;0.53;;;24.50;99.90;;;;;;5021765;28;20540;-82
2022/05/07 11:42:29;;;;;;;0.50;0.50;;;24.30;99.90;;;;;;5009584;28;20848;-82
2022/05/07 11:47:54;;;;;;;0.60;0.47;;;24.70;99.90;;;;;;5008621;28;20714;-81
2022/05/07 11:50:22;;;;;;;0.43;0.43;;;24.50;99.90;;;;;;4999363;28;20258;-82
2022/05/07 11:52:48;;;;;;;0.20;0.20;;;24.90;99.90;;;;;;5005973;28;20222;-82
2022/05/07 11:55:14;;;;;;;0.40;0.30;;;24.40;99.90;;;;;;5006425;28;20645;-81
2022/05/07 11:57:44;;;;;;;0.87;0.40;;;24.10;99.90;;;;;;4999171;28;20179;-81
2022/05/07 12:00:18;;;;;;;0.80;0.80;;;23.40;99.90;;;;;;5007199;28;20183;-81
2022/05/07 12:03:00;;;;;;;0.63;0.40;;;23.10;99.90;;;;;;4999188;28;20320;-82
2022/05/07 12:05:26;;;;;;;6.60;0.67;;;23.40;99.90;;;;;;5007359;28;20182;-81
2022/05/07 12:07:53;;;;;;;0.30;0.30;;;23.50;99.90;;;;;;5000469;28;20587;-81
2022/05/07 12:10:21;;;;;;;0.40;0.40;;;23.80;99.90;;;;;;5000614;28;20214;-81
2022/05/07 12:12:47;;;;;;;0.50;0.50;;;23.70;99.90;;;;;;4999875;28;20295;-81
2022/05/07 12:15:13;;;;;;;0.30;0.30;;;24.50;99.90;;;;;;4998337;28;20216;-81
2022/05/07 12:17:55;;;;;;;0.33;0.33;;;25.00;99.90;;;;;;4999501;28;20187;-81
2022/05/07 12:20:24;;;;;;;0.53;0.53;;;25.30;99.90;;;;;;5000223;28;21217;-81
2022/05/07 12:31:05;;;;;;;3.20;0.83;;;24.50;99.90;;;;;;4999322;28;20205;-81
2022/05/07 12:33:31;;;;;;;0.33;0.33;;;24.60;99.90;;;;;;4998409;28;20202;-81
2022/05/07 12:35:56;;;;;;;0.40;0.40;;;24.80;99.90;;;;;;4996729;28;20179;-82
2022/05/07 12:38:22;;;;;;;0.30;0.30;;;23.70;99.90;;;;;;4999289;28;20199;-81
2022/05/07 12:40:47;;;;;;;0.57;0.57;;;23.80;99.90;;;;;;4999318;28;20262;-81
2022/05/07 12:43:13;;;;;;;0.57;0.50;;;24.00;99.90;;;;;;4999171;28;20199;-81
2022/05/07 12:45:38;;;;;;;0.70;0.70;;;23.60;99.90;;;;;;5014245;28;20191;-81
2022/05/07 12:48:04;;;;;;;0.40;0.40;;;23.40;99.90;;;;;;4997891;28;20183;-82
2022/05/07 12:50:30;;;;;;;0.20;0.20;;;23.70;99.90;;;;;;4998346;28;20199;-81
2022/05/07 12:52:55;;;;;;;0.37;0.37;;;24.60;99.90;;;;;;5004599;28;20210;-81
2022/05/07 12:55:21;;;;;;;0.20;0.20;;;24.10;99.90;;;;;;5014623;28;20266;-82
2022/05/07 12:57:47;;;;;;;0.40;0.40;;;23.70;99.90;;;;;;4998035;28;20277;-81
2022/05/07 13:00:13;;;;;;;0.80;0.80;;;23.40;99.90;;;;;;4998529;28;20559;-81
2022/05/07 13:02:39;;;;;;;0.40;0.40;;;24.30;99.90;;;;;;4997553;28;20211;-82
2022/05/07 13:05:05;;;;;;;0.30;0.30;;;25.00;99.90;;;;;;5004865;28;20201;-81
2022/05/07 13:07:31;;;;;;;1.17;0.50;;;25.00;99.90;;;;;;4998214;28;21122;-81
2022/05/07 13:09:56;;;;;;;0.33;0.33;;;25.40;99.90;;;;;;5005215;28;20213;-82
2022/05/07 13:12:24;;;;;;;1.53;0.60;;;24.70;99.90;;;;;;5013001;28;20179;-81
2022/05/07 13:14:50;;;;;;;0.60;0.60;;;24.40;99.90;;;;;;5005624;28;20186;-82
2022/05/07 13:17:15;;;;;;;0.27;0.27;;;24.20;99.90;;;;;;4998129;28;20645;-82
2022/05/07 13:19:41;;;;;;;0.67;0.67;;;23.30;99.90;;;;;;4997469;28;20664;-82
2022/05/07 13:22:07;;;;;;;0.43;0.37;;;23.00;99.90;;;;;;5007272;28;20179;-82
2022/05/07 13:24:32;;;;;;;0.40;0.40;;;23.00;99.90;;;;;;5004906;28;20249;-81
2022/05/07 13:26:58;;;;;;;0.60;0.60;;;23.00;99.90;;;;;;5007534;28;20182;-82
2022/05/07 13:29:24;;;;;;;0.23;0.23;;;23.00;99.90;;;;;;5003265;28;20213;-81
2022/05/07 13:31:49;;;;;;;0.27;0.27;;;23.30;99.90;;;;;;5009248;28;20188;-82